Time;durP1;ratioP1;P1;durP2;ratioP2;P2;SDS_P1;SDS_P2;PMS_P1;PMS_P2;Temp;Humidity;BMP_temperature;BMP_pressure;BME280_temperature;BME280_humidity;BME280_pressure;Samples;Min_cycle;Max_cycle;Signal;HPM_P1;HPM_P2
2022/05/28 00:00:07;;;;;;;2.45;1.00;;;;;;;15.56;56.36;99696.25;6269752;28;20099;-75
2022/05/28 00:03:08;;;;;;;1.35;0.65;;;;;;;15.56;56.93;99701.50;6271652;28;20045;-75
2022/05/28 00:06:17;;;;;;;2.40;0.70;;;;;;;15.62;56.85;99693.06;6271905;28;20045;-75
2022/05/28 00:09:18;;;;;;;0.82;0.60;;;;;;;15.52;59.02;99693.91;6270361;28;20510;-75
2022/05/28 00:12:23;;;;;;;1.27;0.60;;;;;;;15.49;57.53;99699.41;6270488;28;20041;-75
2022/05/28 00:15:24;;;;;;;1.02;0.63;;;;;;;15.35;57.71;99707.66;6271694;28;20053;-75
2022/05/28 00:18:24;;;;;;;0.75;0.60;;;;;;;15.45;57.69;99713.78;6271666;28;20044;-75
2022/05/28 00:21:27;;;;;;;1.40;0.50;;;;;;;15.46;57.22;99712.84;6271478;28;20056;-75
2022/05/28 00:24:27;;;;;;;;;;;;;;;15.43;56.92;99712.25;6272092;28;20391;-75
2022/05/28 00:27:28;;;;;;;1.67;0.68;;;;;;;15.43;57.29;99702.56;6271847;28;19997;-75
2022/05/28 00:30:29;;;;;;;1.83;0.75;;;;;;;15.47;57.93;99703.16;6253748;28;20072;-75
2022/05/28 00:33:30;;;;;;;0.93;0.55;;;;;;;15.48;58.24;99707.41;6270310;28;20049;-75
2022/05/28 00:36:31;;;;;;;1.20;0.57;;;;;;;15.56;57.60;99704.13;6271654;28;20106;-76
2022/05/28 00:39:32;;;;;;;1.48;1.02;;;;;;;15.52;57.62;99707.03;6271618;28;20526;-76
2022/05/28 00:42:32;;;;;;;1.90;0.70;;;;;;;15.61;60.56;99702.78;6271514;28;20045;-75
2022/05/28 00:45:34;;;;;;;1.88;0.50;;;;;;;15.62;58.45;99695.72;6270443;28;20389;-76
2022/05/28 00:48:40;;;;;;;1.63;0.50;;;;;;;15.64;57.99;99702.50;6270251;28;20041;-76
2022/05/28 00:51:46;;;;;;;4.80;0.80;;;;;;;15.65;58.10;99688.38;6270184;28;20037;-75
2022/05/28 00:54:48;;;;;;;0.88;0.60;;;;;;;15.59;58.91;99683.66;6271437;28;20055;-75
2022/05/28 00:57:49;;;;;;;;;;;;;;;15.57;57.99;99697.91;6276035;28;20044;-75
2022/05/28 01:00:49;;;;;;;3.22;0.90;;;;;;;15.54;57.94;99696.38;6275680;28;20066;-74
2022/05/28 01:04:22;;;;;;;3.53;0.70;;;;;;;15.50;58.39;99672.16;6275426;28;20476;-74
2022/05/28 01:07:38;;;;;;;;;;;;;;;15.47;58.19;99690.81;6275426;28;20065;-73
2022/05/28 01:10:54;;;;;;;2.95;0.75;;;;;;;15.43;57.75;99688.59;6273651;28;19928;-74
2022/05/28 01:14:17;;;;;;;1.08;0.77;;;;;;;15.41;58.42;99687.91;6275273;28;20128;-74
2022/05/28 01:17:18;;;;;;;0.82;0.77;;;;;;;15.47;58.56;99703.97;6275198;28;20048;-75
2022/05/28 01:20:22;;;;;;;2.25;0.88;;;;;;;15.54;60.11;99695.53;6273987;28;20045;-74
2022/05/28 01:23:40;;;;;;;0.85;0.50;;;;;;;15.54;61.21;99695.53;6275133;28;20087;-74
2022/05/28 01:27:04;;;;;;;2.35;0.60;;;;;;;15.50;61.01;99698.47;6274965;28;20360;-74
2022/05/28 01:30:09;;;;;;;1.75;0.55;;;;;;;15.46;59.45;99689.19;6273235;28;20061;-74
2022/05/28 01:33:12;;;;;;;3.97;0.73;;;;;;;15.41;60.81;99683.47;6274658;28;20049;-74
2022/05/28 01:36:16;;;;;;;3.55;0.70;;;;;;;15.38;59.77;99685.53;6273404;28;20472;-74
2022/05/28 01:39:18;;;;;;;3.08;0.90;;;;;;;15.36;60.03;99696.19;6257099;28;20505;-74
2022/05/28 01:42:20;;;;;;;1.88;0.90;;;;;;;15.38;60.60;99703.94;6274516;28;20086;-74
2022/05/28 01:45:26;;;;;;;2.55;0.70;;;;;;;15.40;59.96;99699.38;6273896;28;20049;-74
2022/05/28 01:48:27;;;;;;;3.08;0.60;;;;;;;15.38;61.27;99691.63;6273698;28;20162;-76
2022/05/28 01:51:33;;;;;;;2.22;0.60;;;;;;;15.39;60.81;99705.59;6256497;28;20081;-75
2022/05/28 01:54:39;;;;;;;1.38;0.65;;;;;;;15.35;60.21;99707.66;6274269;28;20063;-74
2022/05/28 01:57:40;;;;;;;1.63;0.60;;;;;;;15.36;60.53;99716.38;6274273;28;20048;-75
2022/05/28 02:00:41;;;;;;;1.50;0.80;;;;;;;15.40;61.01;99712.50;6273021;28;20106;-74
2022/05/28 02:03:45;;;;;;;4.10;1.00;;;;;;;15.36;59.63;99722.47;6274236;28;20036;-75
2022/05/28 02:06:46;;;;;;;0.98;0.70;;;;;;;15.41;62.08;99732.59;6273633;28;20041;-74
2022/05/28 02:10:07;;;;;;;2.88;0.77;;;;;;;15.34;59.17;99737.56;6272223;28;20057;-75
2022/05/28 02:13:38;;;;;;;1.70;0.70;;;;;;;15.38;63.04;99724.94;6273833;28;20041;-74
2022/05/28 02:16:51;;;;;;;0.55;0.50;;;;;;;15.41;63.60;99732.59;6273963;28;20040;-74
2022/05/28 02:20:02;;;;;;;1.15;0.63;;;;;;;15.26;59.69;99724.25;6273715;28;20053;-74
2022/05/28 02:23:27;;;;;;;0.60;0.50;;;;;;;15.19;59.62;99737.03;6273521;28;20087;-74
2022/05/28 02:26:42;;;;;;;1.42;0.60;;;;;;;15.20;59.45;99716.88;6273478;28;20041;-74
2022/05/28 02:29:42;;;;;;;1.10;0.60;;;;;;;15.24;60.13;99723.53;6273435;28;20117;-74
2022/05/28 02:32:43;;;;;;;1.33;0.73;;;;;;;15.28;66.25;99736.28;6272302;28;20037;-74
2022/05/28 02:35:44;;;;;;;2.85;0.68;;;;;;;15.21;64.51;99736.94;6272188;28;20073;-75
2022/05/28 02:38:46;;;;;;;1.33;0.63;;;;;;;15.26;62.17;99737.38;6273363;28;20044;-74
2022/05/28 02:41:46;;;;;;;1.50;1.20;;;;;;;15.18;60.82;99729.31;6273155;28;20053;-74
2022/05/28 02:44:47;;;;;;;3.55;1.83;;;;;;;15.17;61.40;99738.16;6271784;28;20075;-74
2022/05/28 02:47:48;;;;;;;3.35;1.80;;;;;;;15.17;62.05;99746.84;6273029;28;20387;-74
2022/05/28 02:50:49;;;;;;;3.05;1.50;;;;;;;15.19;60.71;99750.19;6271735;28;20407;-74
2022/05/28 02:53:52;;;;;;;2.03;1.38;;;;;;;15.17;63.78;99751.28;6255087;28;20472;-74
2022/05/28 02:56:54;;;;;;;5.53;1.55;;;;;;;15.19;62.73;99742.31;6271555;28;20045;-74
2022/05/28 02:59:56;;;;;;;2.88;0.90;;;;;;;15.12;60.57;99728.03;6271462;28;20146;-75
2022/05/28 03:02:56;;;;;;;2.63;0.70;;;;;;;15.13;61.52;99736.75;6272599;28;20045;-75
2022/05/28 03:05:57;;;;;;;3.47;0.77;;;;;;;15.07;61.40;99717.91;6272654;28;20090;-72
2022/05/28 03:08:58;;;;;;;1.55;0.80;;;;;;;15.13;65.75;99727.06;6271155;28;20395;-72
2022/05/28 03:11:59;;;;;;;2.53;0.70;;;;;;;15.09;61.68;99726.50;6271276;28;20047;-72
2022/05/28 03:14:59;;;;;;;2.03;0.82;;;;;;;15.14;61.50;99739.25;6272328;28;20076;-72
2022/05/28 03:18:01;;;;;;;1.58;0.80;;;;;;;15.18;61.99;99730.13;6271090;28;20044;-72
2022/05/28 03:21:02;;;;;;;2.38;0.73;;;;;;;15.21;64.83;99734.28;6287716;28;20052;-72
2022/05/28 03:24:06;;;;;;;2.45;0.70;;;;;;;15.20;66.31;99728.22;6272249;28;20479;-72
2022/05/28 03:27:07;;;;;;;1.48;0.90;;;;;;;15.21;67.59;99710.63;6272226;28;20056;-72
2022/05/28 03:30:09;;;;;;;2.25;1.00;;;;;;;15.15;66.14;99725.13;6271992;28;20440;-72
2022/05/28 03:33:10;;;;;;;8.20;2.45;;;;;;;15.13;60.62;99736.75;6254567;28;20048;-72
2022/05/28 03:36:11;;;;;;;8.05;1.70;;;;;;;15.10;60.49;99748.34;6271065;28;20044;-72
2022/05/28 03:39:12;;;;;;;2.55;1.13;;;;;;;15.00;61.08;99747.47;6270313;28;20495;-73
2022/05/28 03:42:13;;;;;;;3.42;0.90;;;;;;;15.00;61.36;99744.84;6271940;28;20076;-72
2022/05/28 03:45:14;;;;;;;1.75;0.70;;;;;;;14.84;62.44;99738.22;6270849;28;20045;-73
2022/05/28 03:48:14;;;;;;;2.72;0.80;;;;;;;14.87;62.22;99740.63;6272002;28;20060;-72
2022/05/28 03:51:15;;;;;;;0.50;0.50;;;;;;;14.94;62.01;99745.34;6271828;28;20060;-72
2022/05/28 03:54:16;;;;;;;3.08;0.80;;;;;;;14.88;62.28;99731.75;6271907;28;20048;-73
2022/05/28 03:57:23;;;;;;;4.57;0.82;;;;;;;14.84;63.27;99754.00;6270875;28;20056;-72
2022/05/28 04:00:23;;;;;;;1.25;0.80;;;;;;;14.82;62.98;99752.47;6270748;28;20431;-72
2022/05/28 04:03:24;;;;;;;2.05;0.82;;;;;;;14.99;62.50;99745.78;6254033;28;20045;-72
2022/05/28 04:06:25;;;;;;;1.40;0.82;;;;;;;14.95;63.38;99744.38;6271748;28;20060;-73
2022/05/28 04:09:27;;;;;;;2.88;0.80;;;;;;;14.95;62.53;99761.00;6270185;28;20053;-73
2022/05/28 04:12:28;;;;;;;1.75;0.80;;;;;;;15.06;62.78;99762.72;6271775;28;20045;-72
2022/05/28 04:15:29;;;;;;;7.65;0.80;;;;;;;15.09;61.63;99738.78;6270405;28;20090;-72
2022/05/28 04:18:30;;;;;;;2.85;0.95;;;;;;;15.04;61.81;99743.63;6253851;28;20045;-72
2022/05/28 04:21:31;;;;;;;2.15;0.70;;;;;;;15.09;62.52;99744.91;6271630;28;20124;-72
2022/05/28 04:24:32;;;;;;;1.73;0.80;;;;;;;14.93;62.62;99751.56;6270341;28;20048;-72
2022/05/28 04:27:33;;;;;;;2.50;0.90;;;;;;;14.97;62.58;99745.94;6273879;28;20357;-72
2022/05/28 04:30:34;;;;;;;2.58;1.20;;;;;;;15.04;62.42;99764.63;6295985;28;20300;-73
2022/05/28 04:33:35;;;;;;;2.45;1.10;;;;;;;15.06;62.82;99760.91;6283132;28;20127;-73
2022/05/28 04:36:36;;;;;;;4.05;1.10;;;;;;;15.25;62.80;99760.19;6300773;28;20719;-72
2022/05/28 04:39:36;;;;;;;3.53;0.88;;;;;;;15.26;63.55;99755.78;6283131;28;20040;-73
2022/05/28 04:42:37;;;;;;;2.88;0.80;;;;;;;14.95;62.43;99760.13;6300623;28;20394;-75
2022/05/28 04:45:38;;;;;;;5.85;1.05;;;;;;;14.92;62.31;99774.38;6299419;28;20041;-74
2022/05/28 04:48:39;;;;;;;1.20;0.70;;;;;;;14.94;61.99;99772.44;6300670;28;20066;-74
2022/05/28 04:51:40;;;;;;;4.90;1.00;;;;;;;15.19;61.48;99773.00;6299376;28;20402;-73
2022/05/28 04:54:41;;;;;;;1.13;0.80;;;;;;;15.30;60.27;99778.22;6298100;28;20055;-74
2022/05/28 04:57:42;;;;;;;1.10;0.80;;;;;;;15.40;59.66;99783.50;6300296;28;20689;-74
2022/05/28 05:00:45;;;;;;;3.33;0.93;;;;;;;15.44;59.73;99783.13;6297015;28;20048;-74
2022/05/28 05:03:46;;;;;;;3.63;1.00;;;;;;;15.77;59.27;99777.72;6299145;28;20044;-74
2022/05/28 05:06:47;;;;;;;2.72;0.85;;;;;;;15.73;59.51;99765.81;6298738;28;20075;-73
2022/05/28 05:09:47;;;;;;;3.63;1.08;;;;;;;15.99;61.68;99768.78;6301104;28;20487;-74
2022/05/28 05:12:48;;;;;;;3.30;0.73;;;;;;;16.17;60.07;99776.88;6292724;28;20384;-73
2022/05/28 05:15:49;;;;;;;1.35;0.90;;;;;;;16.20;58.75;99785.28;6276187;28;20521;-73
2022/05/28 05:18:50;;;;;;;2.90;0.90;;;;;;;16.47;58.20;99763.59;6278234;28;20043;-74
2022/05/28 05:21:54;;;;;;;1.17;0.73;;;;;;;16.73;59.69;99768.28;6275071;28;20065;-74
2022/05/28 05:24:55;;;;;;;3.13;0.88;;;;;;;16.87;58.47;99765.25;6281589;28;20037;-74
2022/05/28 05:27:55;;;;;;;2.72;0.90;;;;;;;16.90;53.36;99770.25;6291030;28;20055;-72
2022/05/28 05:30:56;;;;;;;1.45;0.80;;;;;;;16.78;54.73;99773.13;6294484;28;20040;-74
2022/05/28 05:33:57;;;;;;;4.15;1.10;;;;;;;16.66;54.23;99789.09;6273882;28;20079;-74
2022/05/28 05:36:57;;;;;;;1.40;0.88;;;;;;;16.78;59.50;99799.47;6279650;28;20043;-74
2022/05/28 05:39:58;;;;;;;5.00;1.00;;;;;;;16.84;55.18;99797.16;6297900;28;20539;-74
2022/05/28 05:42:59;;;;;;;1.52;0.82;;;;;;;16.92;58.04;99797.28;6280516;28;20053;-75
2022/05/28 05:46:01;;;;;;;1.67;0.80;;;;;;;16.94;53.60;99785.75;6291249;28;20095;-74
2022/05/28 05:49:04;;;;;;;2.10;0.95;;;;;;;16.81;55.44;99797.41;6299508;28;20040;-74
2022/05/28 05:52:05;;;;;;;3.10;0.90;;;;;;;16.85;54.37;99779.53;6299435;28;20044;-73
2022/05/28 05:55:06;;;;;;;3.43;1.00;;;;;;;16.95;54.91;99776.91;6298190;28;20060;-74
2022/05/28 05:58:08;;;;;;;3.70;1.20;;;;;;;17.08;54.77;99777.41;6309707;28;20056;-74
2022/05/28 06:01:09;;;;;;;3.30;1.00;;;;;;;17.17;55.78;99776.53;6297763;28;20049;-74
2022/05/28 06:04:10;;;;;;;2.60;1.05;;;;;;;17.35;57.55;99778.44;6291696;28;20048;-74
2022/05/28 06:07:10;;;;;;;2.95;1.02;;;;;;;17.45;52.82;99779.25;6261671;28;20049;-74
2022/05/28 06:10:12;;;;;;;3.90;0.95;;;;;;;17.45;55.75;99787.97;6273705;28;20053;-74
2022/05/28 06:13:12;;;;;;;7.05;1.23;;;;;;;17.70;55.01;99775.94;6280457;28;20040;-74
2022/05/28 06:16:13;;;;;;;1.77;1.20;;;;;;;18.04;55.95;99771.91;6293088;28;20047;-75
2022/05/28 06:19:14;;;;;;;4.03;1.00;;;;;;;18.22;53.45;99766.63;6294478;28;20041;-75
2022/05/28 06:22:15;;;;;;;6.55;1.50;;;;;;;18.31;53.33;99757.81;6273486;28;20060;-75
2022/05/28 06:25:16;;;;;;;1.92;0.98;;;;;;;18.24;50.17;99754.13;6258001;28;20033;-75
2022/05/28 06:28:17;;;;;;;6.07;1.10;;;;;;;18.24;53.05;99754.13;6255741;28;20460;-75
2022/05/28 06:31:18;;;;;;;4.20;1.10;;;;;;;18.38;54.60;99753.59;6282380;28;20052;-76
2022/05/28 06:34:18;;;;;;;2.33;0.97;;;;;;;18.54;54.62;99760.84;6288487;28;20079;-75
2022/05/28 06:37:19;;;;;;;3.03;0.80;;;;;;;18.70;50.97;99753.03;6278762;28;20060;-75
2022/05/28 06:40:20;;;;;;;3.03;1.13;;;;;;;18.58;51.94;99746.34;6296536;28;20128;-75
2022/05/28 06:43:21;;;;;;;8.75;1.33;;;;;;;18.71;49.42;99759.16;6296565;28;20068;-75
2022/05/28 06:46:22;;;;;;;5.33;1.10;;;;;;;18.76;51.43;99767.47;6263290;28;20122;-75
2022/05/28 06:49:23;;;;;;;2.83;0.90;;;;;;;18.70;51.17;99765.44;6277062;28;20479;-74
2022/05/28 06:52:24;;;;;;;3.25;0.90;;;;;;;18.81;50.97;99774.97;6273400;28;20052;-75
2022/05/28 06:55:25;;;;;;;17.57;1.30;;;;;;;18.95;50.71;99763.00;6322804;28;20113;-74
2022/05/28 06:58:26;;;;;;;3.53;1.35;;;;;;;19.08;49.15;99761.59;6293293;28;20059;-75
2022/05/28 07:01:27;;;;;;;3.77;1.10;;;;;;;19.25;46.53;99761.69;6294303;28;20048;-75
2022/05/28 07:04:28;;;;;;;6.77;0.87;;;;;;;19.39;46.93;99749.69;6286459;28;20064;-74
2022/05/28 07:07:28;;;;;;;2.50;1.03;;;;;;;19.26;45.10;99756.25;6292900;28;20539;-75
2022/05/28 07:10:29;;;;;;;6.20;1.03;;;;;;;19.67;45.98;99751.16;6295324;28;20060;-75
2022/05/28 07:13:30;;;;;;;5.03;1.20;;;;;;;19.49;45.68;99745.13;6294300;28;20498;-75
2022/05/28 07:16:30;;;;;;;3.10;1.10;;;;;;;19.58;46.50;99752.13;6292863;28;20487;-75
2022/05/28 07:19:31;;;;;;;2.57;0.90;;;;;;;19.60;42.12;99744.84;6296559;28;20071;-75
2022/05/28 07:22:32;;;;;;;3.80;0.70;;;;;;;19.50;42.94;99742.31;6294269;28;20514;-75
2022/05/28 07:25:33;;;;;;;1.50;0.67;;;;;;;19.59;41.08;99739.72;6294952;28;20048;-74
2022/05/28 07:28:39;;;;;;;3.33;1.00;;;;;;;19.31;43.00;99742.53;6295797;28;20040;-74
2022/05/28 07:31:40;;;;;;;3.28;1.17;;;;;;;19.70;44.24;99732.31;6268587;28;20057;-75
2022/05/28 07:34:41;;;;;;;2.67;1.00;;;;;;;19.77;42.26;99726.38;6298272;28;20111;-74
2022/05/28 07:37:41;;;;;;;4.90;1.33;;;;;;;19.96;45.31;99726.13;6286019;28;20041;-75
2022/05/28 07:40:42;;;;;;;27.40;1.73;;;;;;;20.06;43.25;99718.84;6289888;28;20048;-75
2022/05/28 07:43:44;;;;;;;3.17;0.90;;;;;;;20.11;39.82;99734.25;6273133;28;20033;-74
2022/05/28 07:46:45;;;;;;;1.55;0.88;;;;;;;20.47;38.04;99723.38;6292028;28;20130;-75
2022/05/28 07:49:46;;;;;;;6.80;0.97;;;;;;;20.10;38.79;99714.06;6274520;28;20516;-75
2022/05/28 07:52:49;;;;;;;3.37;0.90;;;;;;;20.33;39.58;99715.06;6293730;28;20036;-75
2022/05/28 07:55:50;;;;;;;6.90;1.02;;;;;;;20.53;42.72;99723.53;6292651;28;20079;-76
2022/05/28 07:58:51;;;;;;;3.63;1.10;;;;;;;20.65;39.85;99721.41;6295109;28;20406;-76
2022/05/28 08:01:52;;;;;;;2.57;1.00;;;;;;;20.71;37.38;99727.84;6285601;28;20049;-76
2022/05/28 08:04:53;;;;;;;1.27;0.90;;;;;;;20.73;37.78;99718.75;6270801;28;20051;-76
2022/05/28 08:07:54;;;;;;;6.93;1.00;;;;;;;20.63;40.37;99717.25;6274181;28;20041;-76
2022/05/28 08:10:54;;;;;;;2.40;0.70;;;;;;;20.29;37.99;99721.69;6280634;28;20544;-74
2022/05/28 08:13:55;;;;;;;3.00;0.80;;;;;;;20.42;38.19;99723.84;6286980;28;20666;-75
2022/05/28 08:16:56;;;;;;;2.07;0.77;;;;;;;20.45;38.39;99723.53;6303990;28;20049;-75
2022/05/28 08:19:57;;;;;;;2.20;0.90;;;;;;;20.92;37.71;99719.38;6298411;28;20388;-75
2022/05/28 08:23:10;;;;;;;4.63;1.23;;;;;;;20.84;37.99;99724.72;6288153;28;20135;-74
2022/05/28 08:26:12;;;;;;;2.05;1.08;;;;;;;20.99;38.47;99733.63;6286519;28;20102;-74
2022/05/28 08:29:13;;;;;;;2.67;0.95;;;;;;;20.87;35.16;99733.13;6282914;28;20041;-74
2022/05/28 08:32:18;;;;;;;2.37;0.97;;;;;;;21.01;36.46;99736.94;6274571;28;20094;-74
2022/05/28 08:35:19;;;;;;;2.95;1.15;;;;;;;21.13;37.29;99727.63;6260402;28;20153;-74
2022/05/28 08:38:22;;;;;;;3.85;0.90;;;;;;;21.36;38.35;99739.34;6282731;28;20124;-74
2022/05/28 08:41:59;;;;;;;3.03;1.10;;;;;;;21.05;36.53;99735.59;6280302;28;20102;-73
2022/05/28 08:45:03;;;;;;;2.30;0.90;;;;;;;21.29;37.37;99733.84;6284421;28;20068;-74
2022/05/28 08:48:04;;;;;;;6.50;1.20;;;;;;;21.14;39.33;99739.06;6284802;28;20197;-74
2022/05/28 08:51:15;;;;;;;6.28;1.38;;;;;;;21.30;39.17;99739.00;6279718;28;20044;-74
2022/05/28 08:54:26;;;;;;;3.20;1.08;;;;;;;21.47;36.39;99741.63;6288731;28;20049;-74
2022/05/28 08:58:00;;;;;;;4.55;1.08;;;;;;;21.51;36.43;99751.72;6280545;28;20459;-74
2022/05/28 09:01:16;;;;;;;2.55;0.90;;;;;;;21.56;35.84;99745.06;6284626;28;20040;-74
2022/05/28 09:04:29;;;;;;;6.03;1.17;;;;;;;21.27;37.10;99751.78;6289254;28;20649;-75
2022/05/28 09:07:30;;;;;;;1.90;0.80;;;;;;;21.32;37.25;99757.41;6296567;28;20044;-75
2022/05/28 09:10:46;;;;;;;2.83;0.88;;;;;;;21.56;36.80;99753.03;6297145;28;20056;-75
2022/05/28 09:13:49;;;;;;;6.97;1.58;;;;;;;21.57;37.13;99754.72;6287090;28;20049;-75
2022/05/28 09:16:56;;;;;;;5.53;1.00;;;;;;;21.48;38.09;99757.41;6279022;28;20041;-75
2022/05/28 09:20:00;;;;;;;3.50;1.08;;;;;;;21.22;38.48;99754.13;6297636;28;20071;-74
2022/05/28 09:23:01;;;;;;;2.67;0.88;;;;;;;21.27;38.33;99752.63;6297537;28;20427;-75
2022/05/28 09:26:03;;;;;;;2.77;1.10;;;;;;;22.65;35.59;99751.22;6280003;28;20048;-75
2022/05/28 09:29:06;;;;;;;6.85;1.00;;;;;;;23.05;34.89;99751.91;6298953;28;20052;-75
2022/05/28 09:32:27;;;;;;;6.38;0.95;;;;;;;22.99;35.40;99752.59;6298632;28;20123;-75
2022/05/28 09:35:53;;;;;;;1.25;0.80;;;;;;;22.52;37.66;99739.38;6297306;28;20068;-75
2022/05/28 09:39:21;;;;;;;2.90;0.90;;;;;;;22.54;36.91;99737.34;6294152;28;20068;-75
2022/05/28 09:42:30;;;;;;;2.13;0.90;;;;;;;22.17;35.60;99751.41;6295561;28;20102;-75
2022/05/28 09:45:55;;;;;;;2.25;0.70;;;;;;;22.61;36.26;99736.63;6295046;28;20060;-75
2022/05/28 09:49:03;;;;;;;3.13;0.80;;;;;;;23.21;35.99;99749.06;6293680;28;20052;-75
2022/05/28 09:52:10;;;;;;;2.65;0.80;;;;;;;22.98;36.33;99745.59;6294968;28;20124;-75
2022/05/28 09:55:17;;;;;;;3.72;0.75;;;;;;;22.37;37.90;99745.66;6293737;28;20056;-74
2022/05/28 09:58:21;;;;;;;2.50;0.80;;;;;;;21.91;39.93;99747.25;6295403;28;20039;-75
2022/05/28 10:01:27;;;;;;;6.18;0.90;;;;;;;22.69;38.12;99734.75;6292937;28;20460;-75
2022/05/28 10:04:31;;;;;;;2.00;0.70;;;;;;;22.71;38.76;99730.09;6295464;28;20052;-75
2022/05/28 10:07:34;;;;;;;1.17;0.57;;;;;;;22.71;38.60;99737.22;6296347;28;20514;-75
2022/05/28 10:10:37;;;;;;;1.45;0.80;;;;;;;23.31;36.56;99743.47;6297488;28;20059;-75
2022/05/28 10:13:56;;;;;;;4.32;0.80;;;;;;;23.25;37.45;99736.22;6270956;28;20041;-76
2022/05/28 10:17:03;;;;;;;2.50;0.93;;;;;;;22.72;38.05;99726.41;6288321;28;20040;-75
2022/05/28 10:20:17;;;;;;;3.33;0.77;;;;;;;22.48;38.84;99724.78;6295284;28;20097;-74
2022/05/28 10:23:21;;;;;;;11.90;1.15;;;;;;;21.92;40.91;99734.78;6296280;28;20114;-76
2022/05/28 10:26:30;;;;;;;4.63;0.80;;;;;;;21.97;39.96;99743.06;6293858;28;20526;-75
2022/05/28 10:29:41;;;;;;;4.03;0.80;;;;;;;21.60;39.70;99731.31;6291846;28;20041;-75
2022/05/28 10:32:49;;;;;;;3.53;1.00;;;;;;;21.10;40.98;99735.06;6296959;28;20469;-75
2022/05/28 10:35:52;;;;;;;3.22;0.93;;;;;;;21.04;41.11;99733.91;6297524;28;20047;-76
2022/05/28 10:39:10;;;;;;;6.80;1.00;;;;;;;20.94;41.63;99730.66;6273257;28;20506;-75
2022/05/28 10:42:13;;;;;;;1.08;0.90;;;;;;;20.68;42.56;99722.91;6279315;28;20045;-76
2022/05/28 10:45:17;;;;;;;7.50;1.17;;;;;;;20.66;42.69;99724.88;6296055;28;20482;-75
2022/05/28 10:48:21;;;;;;;2.53;1.15;;;;;;;20.38;42.89;99727.00;6297193;28;20076;-76
2022/05/28 10:51:43;;;;;;;6.78;1.05;;;;;;;20.26;44.24;99726.47;6291313;28;20487;-74
2022/05/28 10:55:08;;;;;;;7.75;0.95;;;;;;;20.21;45.01;99728.81;6295509;28;20097;-74
2022/05/28 10:58:27;;;;;;;15.30;1.30;;;;;;;20.45;41.78;99728.84;6292580;28;20068;-73
2022/05/28 11:02:00;;;;;;;4.57;1.02;;;;;;;20.45;41.80;99720.06;6290433;28;20543;-73
2022/05/28 11:05:39;;;;;;;4.45;1.33;;;;;;;20.44;40.95;99715.75;6296184;28;20050;-73
2022/05/28 11:09:01;;;;;;;2.70;1.15;;;;;;;20.80;41.21;99713.59;6270296;28;20076;-74
2022/05/28 11:12:42;;;;;;;4.25;1.10;;;;;;;21.04;39.77;99715.34;6293877;28;20032;-74
2022/05/28 11:15:52;;;;;;;1.65;1.05;;;;;;;20.98;40.79;99713.41;6292869;28;20041;-74
2022/05/28 11:19:08;;;;;;;4.10;1.00;;;;;;;21.23;39.94;99703.56;6277817;28;20052;-73
2022/05/28 11:22:43;;;;;;;5.07;1.08;;;;;;;21.28;40.08;99705.69;6290746;28;20040;-76
2022/05/28 11:25:44;;;;;;;2.55;1.00;;;;;;;21.21;39.39;99702.91;6294339;28;20044;-75
2022/05/28 11:29:06;;;;;;;4.33;0.73;;;;;;;21.28;37.74;99695.91;6277888;28;20526;-75
2022/05/28 11:32:23;;;;;;;5.22;1.02;;;;;;;20.90;33.11;99687.72;6295594;28;20044;-73
2022/05/28 11:35:40;;;;;;;3.47;1.00;;;;;;;20.82;33.29;99687.75;6295874;28;20045;-74
2022/05/28 11:38:47;;;;;;;5.72;1.02;;;;;;;20.54;32.71;99696.03;6296061;28;20399;-73
2022/05/28 11:41:50;;;;;;;5.45;1.02;;;;;;;20.13;32.33;99696.00;6290048;28;20044;-74
2022/05/28 11:44:56;;;;;;;3.72;1.20;;;;;;;20.10;32.90;99698.19;6292917;28;20036;-73
2022/05/28 11:48:04;;;;;;;10.10;1.20;;;;;;;19.98;33.51;99702.97;6274054;28;20076;-73
2022/05/28 11:51:30;;;;;;;3.25;1.10;;;;;;;19.97;31.85;99703.13;6295498;28;20045;-73
2022/05/28 11:54:37;;;;;;;12.02;1.17;;;;;;;19.77;31.69;99695.47;6295599;28;20044;-73
2022/05/28 11:57:49;;;;;;;2.08;0.90;;;;;;;20.10;31.32;99699.00;6289587;28;20048;-73
2022/05/28 12:00:54;;;;;;;3.55;1.30;;;;;;;19.97;32.21;99692.53;6274941;28;20055;-73
2022/05/28 12:03:55;;;;;;;4.68;1.50;;;;;;;19.87;32.13;99687.38;6283367;28;20098;-73
2022/05/28 12:07:08;;;;;;;3.25;1.10;;;;;;;19.98;32.88;99684.41;6293299;28;20056;-73
2022/05/28 12:10:26;;;;;;;3.17;1.13;;;;;;;20.07;32.95;99690.56;6294636;28;20052;-75
2022/05/28 12:13:31;;;;;;;3.83;1.13;;;;;;;19.96;32.87;99701.47;6296721;28;20056;-74
2022/05/28 12:16:43;;;;;;;5.47;1.08;;;;;;;19.86;31.73;99693.66;6294250;28;20125;-76
2022/05/28 12:19:47;;;;;;;3.20;1.10;;;;;;;20.02;32.40;99696.34;6284022;28;20040;-75
2022/05/28 12:23:00;;;;;;;2.35;0.95;;;;;;;20.21;32.88;99708.44;6294652;28;20094;-73
2022/05/28 12:26:03;;;;;;;9.10;1.00;;;;;;;20.03;32.91;99707.75;6294193;28;20064;-73
2022/05/28 12:29:05;;;;;;;6.88;1.15;;;;;;;20.01;34.23;99699.97;6276396;28;20071;-74
2022/05/28 12:32:18;;;;;;;6.13;1.20;;;;;;;19.80;34.94;99687.19;6293388;28;20052;-75
2022/05/28 12:35:44;;;;;;;5.30;1.15;;;;;;;19.77;34.94;99681.38;6292988;28;20173;-75
2022/05/28 12:39:04;;;;;;;3.08;0.88;;;;;;;19.49;34.57;99693.03;6283404;28;20059;-75
2022/05/28 12:42:20;;;;;;;4.03;1.13;;;;;;;19.46;35.38;99687.25;6295875;28;20080;-74
2022/05/28 12:45:39;;;;;;;7.70;1.00;;;;;;;19.48;34.09;99680.81;6288446;28;20166;-74
2022/05/28 12:48:40;;;;;;;13.48;1.05;;;;;;;19.40;35.70;99683.41;6280336;28;20082;-74
2022/05/28 12:51:50;;;;;;;6.82;1.55;;;;;;;19.64;34.74;99666.81;6254631;28;20411;-74
2022/05/28 12:55:16;;;;;;;4.20;1.17;;;;;;;19.99;34.36;99656.13;6268739;28;20143;-74
2022/05/28 12:58:23;;;;;;;6.88;1.25;;;;;;;19.97;35.26;99650.16;6279967;28;20044;-75
2022/05/28 13:01:29;;;;;;;7.70;1.30;;;;;;;19.98;34.78;99659.78;6297575;28;20052;-75
2022/05/28 13:04:35;;;;;;;4.10;1.15;;;;;;;20.28;34.09;99642.38;6296243;28;20514;-75
2022/05/28 13:07:39;;;;;;;12.13;1.50;;;;;;;20.29;34.49;99644.06;6277052;28;20052;-75
2022/05/28 13:11:07;;;;;;;12.45;1.25;;;;;;;20.12;34.00;99640.59;6297272;28;20055;-75
2022/05/28 13:14:17;;;;;;;12.57;1.10;;;;;;;20.22;34.58;99632.44;6295707;28;20828;-74
2022/05/28 13:17:45;;;;;;;9.40;1.08;;;;;;;20.32;34.29;99623.34;6298017;28;20070;-75
2022/05/28 13:21:09;;;;;;;6.53;1.13;;;;;;;20.45;34.19;99622.84;6297254;28;20072;-75
2022/05/28 13:24:34;;;;;;;2.40;0.95;;;;;;;20.62;33.76;99630.78;6293155;28;20163;-74
2022/05/28 13:27:44;;;;;;;4.78;1.10;;;;;;;20.88;33.68;99628.75;6284254;28;20044;-75
2022/05/28 13:31:16;;;;;;;11.38;1.67;;;;;;;20.79;31.83;99616.47;6274666;28;20047;-75
2022/05/28 13:34:22;;;;;;;7.47;1.38;;;;;;;20.95;31.91;99620.09;6281075;28;20099;-75
2022/05/28 13:37:23;;;;;;;1.80;1.00;;;;;;;20.78;31.99;99601.59;6294623;28;20484;-75
2022/05/28 13:40:28;;;;;;;7.20;1.80;;;;;;;20.74;33.07;99592.31;6270488;28;20048;-74
2022/05/28 13:43:35;;;;;;;3.72;1.50;;;;;;;20.40;32.90;99589.88;6285338;28;20055;-75
2022/05/28 13:46:37;;;;;;;5.97;1.33;;;;;;;20.69;33.89;99586.69;6296468;28;20041;-74
2022/05/28 13:49:39;;;;;;;5.15;1.45;;;;;;;20.69;32.96;99587.53;6295113;28;20132;-74
2022/05/28 13:52:45;;;;;;;7.32;1.42;;;;;;;20.86;33.55;99595.44;6296020;28;20123;-74
2022/05/28 13:55:45;;;;;;;7.85;1.13;;;;;;;20.71;33.37;99595.31;6294866;28;20056;-75
2022/05/28 13:58:46;;;;;;;2.87;1.17;;;;;;;20.47;33.52;99597.00;6288408;28;20078;-74
2022/05/28 14:01:49;;;;;;;5.10;1.40;;;;;;;20.28;34.05;99590.25;6278358;28;20462;-74
2022/05/28 14:04:51;;;;;;;5.93;1.50;;;;;;;20.35;34.30;99597.53;6294361;28;20041;-74
2022/05/28 14:07:52;;;;;;;3.60;1.10;;;;;;;19.95;33.26;99588.59;6292537;28;20040;-74
2022/05/28 14:11:03;;;;;;;3.43;1.20;;;;;;;19.86;34.55;99585.13;6295721;28;20093;-74
2022/05/28 14:14:14;;;;;;;5.43;1.40;;;;;;;19.95;35.70;99585.94;6292288;28;20054;-74
2022/05/28 14:17:29;;;;;;;7.57;1.48;;;;;;;19.89;35.70;99590.94;6297512;28;20045;-74
2022/05/28 14:20:34;;;;;;;4.25;1.27;;;;;;;19.86;35.04;99593.06;6293654;28;20044;-74
2022/05/28 14:23:40;;;;;;;4.47;1.50;;;;;;;19.88;34.73;99604.31;6297220;28;20559;-74
2022/05/28 14:26:41;;;;;;;8.80;1.25;;;;;;;19.89;35.75;99606.81;6296283;28;20072;-75
2022/05/28 14:29:45;;;;;;;7.53;1.40;;;;;;;19.75;35.92;99611.91;6293927;28;20037;-75
2022/05/28 14:32:47;;;;;;;16.05;1.83;;;;;;;19.52;36.77;99615.16;6295629;28;20380;-75
2022/05/28 14:35:47;;;;;;;8.90;1.40;;;;;;;19.52;37.06;99610.69;6270321;28;20041;-75